sensor_id;sensor_type;location;lat;lon;timestamp;pressure;altitude;pressure_sealevel;temperature;humidity
34674;BME280;20879;55.668;37.858;2023-07-31T00:01:46;98987.88;;;16.16;74.56
34674;BME280;20879;55.668;37.858;2023-07-31T00:04:25;98990.50;;;16.16;74.86
34674;BME280;20879;55.668;37.858;2023-07-31T00:07:01;98998.50;;;16.13;74.22
34674;BME280;20879;55.668;37.858;2023-07-31T00:09:31;98995.25;;;16.07;74.55
34674;BME280;20879;55.668;37.858;2023-07-31T00:12:01;98997.31;;;16.01;75.09
34674;BME280;20879;55.668;37.858;2023-07-31T00:14:31;98995.63;;;16.00;75.22
34674;BME280;20879;55.668;37.858;2023-07-31T00:17:02;98993.09;;;15.98;75.14
34674;BME280;20879;55.668;37.858;2023-07-31T00:19:33;98992.63;;;16.07;74.77
34674;BME280;20879;55.668;37.858;2023-07-31T00:22:05;98988.19;;;16.10;74.24
34674;BME280;20879;55.668;37.858;2023-07-31T00:24:35;98986.19;;;16.15;74.35
34674;BME280;20879;55.668;37.858;2023-07-31T00:27:08;98990.34;;;16.19;74.38
34674;BME280;20879;55.668;37.858;2023-07-31T00:29:38;98996.44;;;16.19;74.34
34674;BME280;20879;55.668;37.858;2023-07-31T00:32:10;98996.44;;;16.19;74.06
34674;BME280;20879;55.668;37.858;2023-07-31T00:34:46;98983.41;;;16.18;74.27
34674;BME280;20879;55.668;37.858;2023-07-31T00:37:23;98986.81;;;16.20;73.76
34674;BME280;20879;55.668;37.858;2023-07-31T00:39:57;98986.19;;;16.15;74.28
34674;BME280;20879;55.668;37.858;2023-07-31T00:42:34;98992.19;;;16.17;74.48
34674;BME280;20879;55.668;37.858;2023-07-31T00:45:05;98983.41;;;16.18;74.35
34674;BME280;20879;55.668;37.858;2023-07-31T00:47:37;98986.03;;;16.18;74.24
34674;BME280;20879;55.668;37.858;2023-07-31T00:50:16;98988.78;;;16.15;74.60
34674;BME280;20879;55.668;37.858;2023-07-31T00:52:46;98984.44;;;16.15;74.26
34674;BME280;20879;55.668;37.858;2023-07-31T00:55:23;98984.69;;;16.11;74.77
34674;BME280;20879;55.668;37.858;2023-07-31T00:57:58;98968.91;;;15.95;75.37
34674;BME280;20879;55.668;37.858;2023-07-31T01:00:30;98979.28;;;15.96;75.19
34674;BME280;20879;55.668;37.858;2023-07-31T01:02:59;98976.34;;;15.85;75.46
34674;BME280;20879;55.668;37.858;2023-07-31T01:05:39;98985.09;;;15.84;76.39
34674;BME280;20879;55.668;37.858;2023-07-31T01:08:16;98988.63;;;15.83;76.99
34674;BME280;20879;55.668;37.858;2023-07-31T01:11:00;98991.25;;;15.83;77.36
34674;BME280;20879;55.668;37.858;2023-07-31T01:13:32;98994.63;;;15.85;76.52
34674;BME280;20879;55.668;37.858;2023-07-31T01:16:03;98989.16;;;15.89;76.39
34674;BME280;20879;55.668;37.858;2023-07-31T01:18:34;98988.19;;;15.92;76.04
34674;BME280;20879;55.668;37.858;2023-07-31T01:21:18;98988.19;;;15.92;76.43
34674;BME280;20879;55.668;37.858;2023-07-31T01:24:10;98974.81;;;15.81;76.78
34674;BME280;20879;55.668;37.858;2023-07-31T01:26:53;98990.38;;;15.82;76.83
34674;BME280;20879;55.668;37.858;2023-07-31T01:29:34;98991.44;;;15.78;77.07
34674;BME280;20879;55.668;37.858;2023-07-31T01:32:07;98993.72;;;15.86;76.64
34674;BME280;20879;55.668;37.858;2023-07-31T01:34:44;98993.06;;;15.81;76.76
34674;BME280;20879;55.668;37.858;2023-07-31T01:37:15;98984.41;;;15.80;76.46
34674;BME280;20879;55.668;37.858;2023-07-31T01:39:48;98985.09;;;15.84;76.48
34674;BME280;20879;55.668;37.858;2023-07-31T01:42:19;98982.56;;;15.82;76.98
34674;BME280;20879;55.668;37.858;2023-07-31T01:44:51;98987.78;;;15.82;76.95
34674;BME280;20879;55.668;37.858;2023-07-31T01:47:29;98988.75;;;15.80;76.92
34674;BME280;20879;55.668;37.858;2023-07-31T01:50:05;98982.97;;;15.73;77.54
34674;BME280;20879;55.668;37.858;2023-07-31T01:52:39;98994.53;;;15.86;77.19
34674;BME280;20879;55.668;37.858;2023-07-31T01:55:08;98992.56;;;15.92;76.71
34674;BME280;20879;55.668;37.858;2023-07-31T01:57:43;98984.75;;;15.92;76.96
34674;BME280;20879;55.668;37.858;2023-07-31T02:00:13;98998.47;;;15.95;77.00
34674;BME280;20879;55.668;37.858;2023-07-31T02:02:43;98988.78;;;15.97;76.53
34674;BME280;20879;55.668;37.858;2023-07-31T02:05:14;98991.03;;;16.05;76.77
34674;BME280;20879;55.668;37.858;2023-07-31T02:07:44;98984.97;;;16.04;76.20
34674;BME280;20879;55.668;37.858;2023-07-31T02:10:14;98995.88;;;16.13;75.93
34674;BME280;20879;55.668;37.858;2023-07-31T02:12:54;98997.41;;;16.17;76.05
34674;BME280;20879;55.668;37.858;2023-07-31T02:15:37;98996.44;;;16.19;75.59
34674;BME280;20879;55.668;37.858;2023-07-31T02:18:08;98993.88;;;16.18;75.94
34674;BME280;20879;55.668;37.858;2023-07-31T02:20:37;99000.47;;;16.25;75.79
34674;BME280;20879;55.668;37.858;2023-07-31T02:23:07;99000.31;;;16.28;75.50
34674;BME280;20879;55.668;37.858;2023-07-31T02:25:46;99000.03;;;16.34;74.84
34674;BME280;20879;55.668;37.858;2023-07-31T02:28:28;98998.03;;;16.39;74.77
34674;BME280;20879;55.668;37.858;2023-07-31T02:31:03;99004.47;;;16.50;74.38
34674;BME280;20879;55.668;37.858;2023-07-31T02:33:34;99004.16;;;16.56;74.38
34674;BME280;20879;55.668;37.858;2023-07-31T02:36:05;98999.31;;;16.66;74.06
34674;BME280;20879;55.668;37.858;2023-07-31T02:38:36;99001.50;;;16.73;73.58
34674;BME280;20879;55.668;37.858;2023-07-31T02:41:09;99000.50;;;16.76;73.27
34674;BME280;20879;55.668;37.858;2023-07-31T02:43:43;98997.22;;;16.72;73.59
34674;BME280;20879;55.668;37.858;2023-07-31T02:46:20;99000.59;;;16.74;73.29
34674;BME280;20879;55.668;37.858;2023-07-31T02:48:52;98997.97;;;16.74;73.47
34674;BME280;20879;55.668;37.858;2023-07-31T02:51:26;98994.44;;;16.75;73.67
34674;BME280;20879;55.668;37.858;2023-07-31T02:53:59;98996.91;;;16.78;73.67
34674;BME280;20879;55.668;37.858;2023-07-31T02:56:32;99001.06;;;16.83;73.50
34674;BME280;20879;55.668;37.858;2023-07-31T02:59:06;98982.38;;;16.73;73.42
34674;BME280;20879;55.668;37.858;2023-07-31T03:01:38;99005.50;;;16.81;73.29
34674;BME280;20879;55.668;37.858;2023-07-31T03:04:17;99007.13;;;16.83;73.50
34674;BME280;20879;55.668;37.858;2023-07-31T03:06:53;99001.72;;;16.86;73.53
34674;BME280;20879;55.668;37.858;2023-07-31T03:09:29;98997.81;;;16.95;72.94
34674;BME280;20879;55.668;37.858;2023-07-31T03:11:59;98998.44;;;17.00;72.91
34674;BME280;20879;55.668;37.858;2023-07-31T03:14:43;98995.38;;;17.08;72.68
34674;BME280;20879;55.668;37.858;2023-07-31T03:17:13;98982.66;;;17.02;72.77
34674;BME280;20879;55.668;37.858;2023-07-31T03:20:09;98984.75;;;17.11;72.89
34674;BME280;20879;55.668;37.858;2023-07-31T03:22:49;98994.13;;;17.15;72.89
34674;BME280;20879;55.668;37.858;2023-07-31T03:25:20;98992.97;;;17.21;72.89
34674;BME280;20879;55.668;37.858;2023-07-31T03:27:54;98997.09;;;17.25;72.66
34674;BME280;20879;55.668;37.858;2023-07-31T03:30:30;98995.91;;;17.30;72.76
34674;BME280;20879;55.668;37.858;2023-07-31T03:33:00;98998.31;;;17.35;72.84
34674;BME280;20879;55.668;37.858;2023-07-31T03:35:33;98996.34;;;17.39;72.51
34674;BME280;20879;55.668;37.858;2023-07-31T03:38:05;98986.63;;;17.41;72.57
34674;BME280;20879;55.668;37.858;2023-07-31T03:40:43;98992.56;;;17.44;72.37
34674;BME280;20879;55.668;37.858;2023-07-31T03:43:15;98991.47;;;17.49;72.11
34674;BME280;20879;55.668;37.858;2023-07-31T03:45:47;98993.72;;;17.55;71.96
34674;BME280;20879;55.668;37.858;2023-07-31T03:48:19;98989.75;;;17.79;71.48
34674;BME280;20879;55.668;37.858;2023-07-31T03:50:56;98994.00;;;18.12;70.73
34674;BME280;20879;55.668;37.858;2023-07-31T03:53:28;98988.19;;;18.38;69.75
34674;BME280;20879;55.668;37.858;2023-07-31T03:56:16;98980.63;;;18.62;68.36
34674;BME280;20879;55.668;37.858;2023-07-31T03:58:46;98991.41;;;18.72;67.98
34674;BME280;20879;55.668;37.858;2023-07-31T04:01:18;98990.00;;;18.80;67.81
34674;BME280;20879;55.668;37.858;2023-07-31T04:03:54;98993.19;;;18.85;67.69
34674;BME280;20879;55.668;37.858;2023-07-31T04:06:25;98972.56;;;18.79;67.03
34674;BME280;20879;55.668;37.858;2023-07-31T04:09:01;98991.16;;;18.91;67.30
34674;BME280;20879;55.668;37.858;2023-07-31T04:11:31;98985.91;;;18.91;66.82
34674;BME280;20879;55.668;37.858;2023-07-31T04:14:01;98991.16;;;18.91;67.19
34674;BME280;20879;55.668;37.858;2023-07-31T04:16:37;98985.25;;;18.87;66.89
34674;BME280;20879;55.668;37.858;2023-07-31T04:19:08;99000.97;;;18.87;66.92
34674;BME280;20879;55.668;37.858;2023-07-31T04:21:41;98983.81;;;18.81;67.02
34674;BME280;20879;55.668;37.858;2023-07-31T04:24:11;98995.44;;;18.92;67.13
34674;BME280;20879;55.668;37.858;2023-07-31T04:26:42;99001.91;;;19.00;67.59
34674;BME280;20879;55.668;37.858;2023-07-31T04:29:18;99005.94;;;19.06;67.32
34674;BME280;20879;55.668;37.858;2023-07-31T04:31:50;99003.50;;;19.17;66.84
34674;BME280;20879;55.668;37.858;2023-07-31T04:34:28;99002.75;;;19.30;66.60
34674;BME280;20879;55.668;37.858;2023-07-31T04:36:58;99007.88;;;19.46;66.03
34674;BME280;20879;55.668;37.858;2023-07-31T04:39:33;99006.31;;;19.70;64.95
34674;BME280;20879;55.668;37.858;2023-07-31T04:42:04;99002.22;;;19.94;63.92
34674;BME280;20879;55.668;37.858;2023-07-31T04:44:39;99007.53;;;20.06;62.90
34674;BME280;20879;55.668;37.858;2023-07-31T04:47:10;99004.88;;;20.06;61.98
34674;BME280;20879;55.668;37.858;2023-07-31T04:49:42;99007.88;;;19.87;62.14
34674;BME280;20879;55.668;37.858;2023-07-31T04:52:13;98999.59;;;19.94;61.55
34674;BME280;20879;55.668;37.858;2023-07-31T04:54:44;98994.38;;;19.79;62.14
34674;BME280;20879;55.668;37.858;2023-07-31T04:57:15;99012.69;;;19.81;62.05
34674;BME280;20879;55.668;37.858;2023-07-31T04:59:45;99014.47;;;19.80;62.25
34674;BME280;20879;55.668;37.858;2023-07-31T05:02:19;99014.47;;;19.80;62.00
34674;BME280;20879;55.668;37.858;2023-07-31T05:04:52;99016.91;;;19.83;61.84
34674;BME280;20879;55.668;37.858;2023-07-31T05:07:23;99010.66;;;19.99;61.27
34674;BME280;20879;55.668;37.858;2023-07-31T05:09:53;99010.88;;;19.96;61.23
34674;BME280;20879;55.668;37.858;2023-07-31T05:12:24;99010.97;;;20.07;61.61
34674;BME280;20879;55.668;37.858;2023-07-31T05:14:55;98963.63;;;19.81;60.05
34674;BME280;20879;55.668;37.858;2023-07-31T05:17:26;99008.34;;;20.07;59.14
34674;BME280;20879;55.668;37.858;2023-07-31T05:19:57;98987.94;;;19.98;59.14
34674;BME280;20879;55.668;37.858;2023-07-31T05:22:31;98995.88;;;20.11;59.23
34674;BME280;20879;55.668;37.858;2023-07-31T05:25:01;98992.47;;;20.08;59.58
34674;BME280;20879;55.668;37.858;2023-07-31T05:27:31;99007.16;;;20.25;59.66
34674;BME280;20879;55.668;37.858;2023-07-31T05:30:10;99001.38;;;20.33;59.52
34674;BME280;20879;55.668;37.858;2023-07-31T05:32:42;99004.34;;;20.41;59.26
34674;BME280;20879;55.668;37.858;2023-07-31T05:35:12;99005.72;;;20.47;58.40
34674;BME280;20879;55.668;37.858;2023-07-31T05:37:43;99004.25;;;20.56;58.46
34674;BME280;20879;55.668;37.858;2023-07-31T05:40:13;99005.63;;;20.62;57.45
34674;BME280;20879;55.668;37.858;2023-07-31T05:42:46;99009.09;;;20.62;57.68
34674;BME280;20879;55.668;37.858;2023-07-31T05:45:16;99004.66;;;20.63;57.54
34674;BME280;20879;55.668;37.858;2023-07-31T05:47:47;99021.09;;;20.79;57.65
34674;BME280;20879;55.668;37.858;2023-07-31T05:50:20;99019.00;;;20.84;57.06
34674;BME280;20879;55.668;37.858;2023-07-31T05:52:59;99026.91;;;20.97;56.72
34674;BME280;20879;55.668;37.858;2023-07-31T05:55:29;99022.69;;;20.94;56.04
34674;BME280;20879;55.668;37.858;2023-07-31T05:58:02;99008.03;;;20.90;56.08
34674;BME280;20879;55.668;37.858;2023-07-31T06:00:31;99023.00;;;21.03;55.86
34674;BME280;20879;55.668;37.858;2023-07-31T06:03:03;99018.13;;;21.09;54.92
34674;BME280;20879;55.668;37.858;2023-07-31T06:05:33;99017.69;;;21.16;54.73
34674;BME280;20879;55.668;37.858;2023-07-31T06:08:04;99023.38;;;21.22;54.91
34674;BME280;20879;55.668;37.858;2023-07-31T06:10:40;99014.81;;;21.32;54.81
34674;BME280;20879;55.668;37.858;2023-07-31T06:13:09;99006.50;;;21.38;53.95
34674;BME280;20879;55.668;37.858;2023-07-31T06:15:40;99020.41;;;21.40;53.96
34674;BME280;20879;55.668;37.858;2023-07-31T06:18:22;99015.75;;;21.43;53.26
34674;BME280;20879;55.668;37.858;2023-07-31T06:20:57;99019.72;;;21.49;53.30
34674;BME280;20879;55.668;37.858;2023-07-31T06:23:32;99013.44;;;21.52;52.74
34674;BME280;20879;55.668;37.858;2023-07-31T06:26:03;99014.16;;;21.54;52.83
34674;BME280;20879;55.668;37.858;2023-07-31T06:28:32;99006.66;;;21.60;52.05
34674;BME280;20879;55.668;37.858;2023-07-31T06:31:02;99010.78;;;21.64;52.11
34674;BME280;20879;55.668;37.858;2023-07-31T06:33:34;99017.81;;;21.64;51.19
34674;BME280;20879;55.668;37.858;2023-07-31T06:36:08;99015.69;;;21.69;51.42
34674;BME280;20879;55.668;37.858;2023-07-31T06:38:38;99018.00;;;21.74;50.92
34674;BME280;20879;55.668;37.858;2023-07-31T06:41:07;99010.84;;;21.76;50.14
34674;BME280;20879;55.668;37.858;2023-07-31T06:43:40;99011.34;;;21.81;50.20
34674;BME280;20879;55.668;37.858;2023-07-31T06:46:15;99011.00;;;21.86;49.70
34674;BME280;20879;55.668;37.858;2023-07-31T06:48:47;99014.75;;;21.94;49.34
34674;BME280;20879;55.668;37.858;2023-07-31T06:51:29;99019.97;;;22.07;49.17
34674;BME280;20879;55.668;37.858;2023-07-31T06:53:59;99010.25;;;22.08;47.57
34674;BME280;20879;55.668;37.858;2023-07-31T06:56:31;99016.97;;;22.12;46.75
34674;BME280;20879;55.668;37.858;2023-07-31T06:59:09;99015.81;;;22.16;46.03
34674;BME280;20879;55.668;37.858;2023-07-31T07:01:44;99011.00;;;22.21;46.74
34674;BME280;20879;55.668;37.858;2023-07-31T07:04:16;99010.81;;;22.24;46.46
34674;BME280;20879;55.668;37.858;2023-07-31T07:06:48;99021.72;;;22.31;45.83
34674;BME280;20879;55.668;37.858;2023-07-31T07:09:18;99007.25;;;22.37;45.75
34674;BME280;20879;55.668;37.858;2023-07-31T07:11:53;99019.16;;;22.42;45.88
34674;BME280;20879;55.668;37.858;2023-07-31T07:14:22;99025.75;;;22.48;45.98
34674;BME280;20879;55.668;37.858;2023-07-31T07:16:52;99021.09;;;22.51;45.85
34674;BME280;20879;55.668;37.858;2023-07-31T07:19:24;99028.53;;;22.58;45.35
34674;BME280;20879;55.668;37.858;2023-07-31T07:21:54;99017.03;;;22.59;44.17
34674;BME280;20879;55.668;37.858;2023-07-31T07:24:31;99017.13;;;22.57;44.58
34674;BME280;20879;55.668;37.858;2023-07-31T07:27:00;99022.81;;;22.64;44.71
34674;BME280;20879;55.668;37.858;2023-07-31T07:29:42;99025.78;;;22.71;43.78
34674;BME280;20879;55.668;37.858;2023-07-31T07:32:17;99017.88;;;22.71;43.50
34674;BME280;20879;55.668;37.858;2023-07-31T07:34:51;99026.31;;;22.76;44.00
34674;BME280;20879;55.668;37.858;2023-07-31T07:37:28;99014.31;;;22.83;42.59
34674;BME280;20879;55.668;37.858;2023-07-31T07:40:09;99006.50;;;22.81;43.00
34674;BME280;20879;55.668;37.858;2023-07-31T07:42:52;98998.13;;;22.88;42.82
34674;BME280;20879;55.668;37.858;2023-07-31T07:45:25;99030.84;;;22.85;42.39
34674;BME280;20879;55.668;37.858;2023-07-31T07:47:54;99026.41;;;22.85;42.50
34674;BME280;20879;55.668;37.858;2023-07-31T07:50:27;99037.34;;;22.92;42.46
34674;BME280;20879;55.668;37.858;2023-07-31T07:52:58;99027.88;;;22.78;42.70
34674;BME280;20879;55.668;37.858;2023-07-31T07:55:28;99027.25;;;22.86;42.59
34674;BME280;20879;55.668;37.858;2023-07-31T07:57:59;99018.25;;;23.00;42.29
34674;BME280;20879;55.668;37.858;2023-07-31T08:00:28;99033.66;;;23.06;42.48
34674;BME280;20879;55.668;37.858;2023-07-31T08:02:59;99026.44;;;23.08;41.99
34674;BME280;20879;55.668;37.858;2023-07-31T08:05:33;99035.47;;;23.17;42.31
34674;BME280;20879;55.668;37.858;2023-07-31T08:08:05;99037.38;;;23.26;42.07
34674;BME280;20879;55.668;37.858;2023-07-31T08:10:36;99024.28;;;23.36;42.39
34674;BME280;20879;55.668;37.858;2023-07-31T08:13:09;99022.22;;;23.39;41.57
34674;BME280;20879;55.668;37.858;2023-07-31T08:15:41;99027.75;;;23.48;41.79
34674;BME280;20879;55.668;37.858;2023-07-31T08:18:20;99024.16;;;23.49;40.79
34674;BME280;20879;55.668;37.858;2023-07-31T08:20:52;99022.97;;;23.42;40.81
34674;BME280;20879;55.668;37.858;2023-07-31T08:23:25;99015.84;;;23.53;40.27
34674;BME280;20879;55.668;37.858;2023-07-31T08:25:55;99034.66;;;23.71;40.84
34674;BME280;20879;55.668;37.858;2023-07-31T08:28:30;99033.69;;;23.84;39.70
34674;BME280;20879;55.668;37.858;2023-07-31T08:31:05;99030.88;;;23.97;39.42
34674;BME280;20879;55.668;37.858;2023-07-31T08:33:35;99022.88;;;24.19;39.65
34674;BME280;20879;55.668;37.858;2023-07-31T08:36:18;99039.03;;;24.37;38.12
34674;BME280;20879;55.668;37.858;2023-07-31T08:38:59;99024.06;;;24.48;38.12
34674;BME280;20879;55.668;37.858;2023-07-31T08:41:38;99040.56;;;24.40;38.24
34674;BME280;20879;55.668;37.858;2023-07-31T08:44:10;99022.56;;;24.34;38.64
34674;BME280;20879;55.668;37.858;2023-07-31T08:46:42;99035.97;;;24.21;38.38
34674;BME280;20879;55.668;37.858;2023-07-31T08:49:13;99040.53;;;24.19;38.70
34674;BME280;20879;55.668;37.858;2023-07-31T08:51:52;99033.78;;;24.26;38.38
34674;BME280;20879;55.668;37.858;2023-07-31T08:54:34;99033.91;;;24.24;38.98
34674;BME280;20879;55.668;37.858;2023-07-31T08:57:06;99029.91;;;24.30;38.74
34674;BME280;20879;55.668;37.858;2023-07-31T08:59:50;99030.56;;;24.43;37.98
34674;BME280;20879;55.668;37.858;2023-07-31T09:02:21;99045.03;;;24.39;37.93
34674;BME280;20879;55.668;37.858;2023-07-31T09:04:52;99053.16;;;24.48;37.62
34674;BME280;20879;55.668;37.858;2023-07-31T09:07:25;99022.19;;;24.38;37.73
34674;BME280;20879;55.668;37.858;2023-07-31T09:10:00;99042.56;;;24.27;37.90
34674;BME280;20879;55.668;37.858;2023-07-31T09:12:36;99041.28;;;24.21;38.21
34674;BME280;20879;55.668;37.858;2023-07-31T09:15:07;99029.22;;;24.28;38.26
34674;BME280;20879;55.668;37.858;2023-07-31T09:18:00;99023.41;;;24.34;38.53
34674;BME280;20879;55.668;37.858;2023-07-31T09:20:31;99041.16;;;24.43;38.08
34674;BME280;20879;55.668;37.858;2023-07-31T09:23:13;99032.25;;;24.66;37.54
34674;BME280;20879;55.668;37.858;2023-07-31T09:25:47;99028.84;;;24.75;37.23
34674;BME280;20879;55.668;37.858;2023-07-31T09:28:31;99049.38;;;24.83;37.29
34674;BME280;20879;55.668;37.858;2023-07-31T09:31:01;99039.38;;;24.86;37.09
34674;BME280;20879;55.668;37.858;2023-07-31T09:33:32;99039.53;;;24.94;36.81
34674;BME280;20879;55.668;37.858;2023-07-31T09:36:04;98994.44;;;24.75;37.06
34674;BME280;20879;55.668;37.858;2023-07-31T09:38:42;99043.06;;;25.05;36.36
34674;BME280;20879;55.668;37.858;2023-07-31T09:41:22;99041.03;;;25.18;36.30
34674;BME280;20879;55.668;37.858;2023-07-31T09:43:55;99033.06;;;25.39;36.08
34674;BME280;20879;55.668;37.858;2023-07-31T09:46:35;99035.22;;;25.24;36.04
34674;BME280;20879;55.668;37.858;2023-07-31T09:49:12;99039.53;;;25.25;36.29
34674;BME280;20879;55.668;37.858;2023-07-31T09:51:45;99034.03;;;25.38;36.86
34674;BME280;20879;55.668;37.858;2023-07-31T09:54:25;99033.38;;;25.56;36.90
34674;BME280;20879;55.668;37.858;2023-07-31T09:56:58;99038.72;;;25.66;36.85
34674;BME280;20879;55.668;37.858;2023-07-31T09:59:35;99040.50;;;25.65;37.55
34674;BME280;20879;55.668;37.858;2023-07-31T10:02:09;99034.34;;;25.55;37.16
34674;BME280;20879;55.668;37.858;2023-07-31T10:04:50;99031.38;;;25.38;36.96
34674;BME280;20879;55.668;37.858;2023-07-31T10:07:25;99049.97;;;25.48;37.13
34674;BME280;20879;55.668;37.858;2023-07-31T10:10:01;99036.94;;;25.35;36.74
34674;BME280;20879;55.668;37.858;2023-07-31T10:12:33;99040.03;;;25.40;37.39
34674;BME280;20879;55.668;37.858;2023-07-31T10:15:05;99033.75;;;25.41;36.96
34674;BME280;20879;55.668;37.858;2023-07-31T10:17:35;99025.81;;;25.41;37.25
34674;BME280;20879;55.668;37.858;2023-07-31T10:20:14;99037.81;;;25.15;37.00
34674;BME280;20879;55.668;37.858;2023-07-31T10:22:47;99042.09;;;25.06;37.30
34674;BME280;20879;55.668;37.858;2023-07-31T10:25:23;99043.13;;;25.15;37.81
34674;BME280;20879;55.668;37.858;2023-07-31T10:27:54;99017.81;;;25.01;36.12
34674;BME280;20879;55.668;37.858;2023-07-31T10:30:32;99036.50;;;24.99;36.66
34674;BME280;20879;55.668;37.858;2023-07-31T10:33:11;99032.59;;;25.03;36.66
34674;BME280;20879;55.668;37.858;2023-07-31T10:35:48;99029.34;;;25.21;36.30
34674;BME280;20879;55.668;37.858;2023-07-31T10:38:23;98950.38;;;25.05;35.74
34674;BME280;20879;55.668;37.858;2023-07-31T10:41:07;99031.72;;;25.64;35.76
34674;BME280;20879;55.668;37.858;2023-07-31T10:43:44;99039.16;;;25.90;34.83
34674;BME280;20879;55.668;37.858;2023-07-31T10:46:18;99030.66;;;25.96;34.48
34674;BME280;20879;55.668;37.858;2023-07-31T10:48:57;99029.00;;;26.05;35.00
34674;BME280;20879;55.668;37.858;2023-07-31T10:51:36;99013.78;;;26.17;35.47
34674;BME280;20879;55.668;37.858;2023-07-31T10:54:16;99031.25;;;26.20;35.14
34674;BME280;20879;55.668;37.858;2023-07-31T10:56:50;99029.28;;;26.31;35.20
34674;BME280;20879;55.668;37.858;2023-07-31T10:59:34;99034.28;;;26.44;35.00
34674;BME280;20879;55.668;37.858;2023-07-31T11:02:24;99033.03;;;26.48;35.34
34674;BME280;20879;55.668;37.858;2023-07-31T11:05:08;99027.03;;;26.46;35.52
34674;BME280;20879;55.668;37.858;2023-07-31T11:07:48;99023.94;;;26.51;35.15
34674;BME280;20879;55.668;37.858;2023-07-31T11:10:23;99019.47;;;26.51;35.39
34674;BME280;20879;55.668;37.858;2023-07-31T11:13:04;99021.97;;;26.73;34.61
34674;BME280;20879;55.668;37.858;2023-07-31T11:15:35;98993.44;;;26.84;34.14
34674;BME280;20879;55.668;37.858;2023-07-31T11:18:13;99019.53;;;27.27;33.69
34674;BME280;20879;55.668;37.858;2023-07-31T11:20:46;99004.97;;;27.31;33.61
34674;BME280;20879;55.668;37.858;2023-07-31T11:23:24;99024.66;;;27.38;33.47
34674;BME280;20879;55.668;37.858;2023-07-31T11:25:59;99019.09;;;27.31;33.50
34674;BME280;20879;55.668;37.858;2023-07-31T11:28:41;99009.97;;;27.06;33.04
34674;BME280;20879;55.668;37.858;2023-07-31T11:31:17;99025.97;;;26.86;34.26
34674;BME280;20879;55.668;37.858;2023-07-31T11:34:04;99020.03;;;26.65;34.78
34674;BME280;20879;55.668;37.858;2023-07-31T11:36:34;99024.94;;;26.40;34.85
34674;BME280;20879;55.668;37.858;2023-07-31T11:39:10;99024.41;;;26.27;35.48
34674;BME280;20879;55.668;37.858;2023-07-31T11:41:42;99026.75;;;26.10;36.29
34674;BME280;20879;55.668;37.858;2023-07-31T11:44:19;99030.94;;;25.93;36.07
34674;BME280;20879;55.668;37.858;2023-07-31T11:46:57;99028.13;;;25.85;36.21
34674;BME280;20879;55.668;37.858;2023-07-31T11:49:36;99019.47;;;25.93;36.51
34674;BME280;20879;55.668;37.858;2023-07-31T11:52:08;99023.00;;;26.13;35.50
34674;BME280;20879;55.668;37.858;2023-07-31T11:54:40;99005.81;;;26.37;35.89
34674;BME280;20879;55.668;37.858;2023-07-31T11:57:11;99013.16;;;26.72;34.64
34674;BME280;20879;55.668;37.858;2023-07-31T11:59:48;99028.34;;;26.90;34.31
34674;BME280;20879;55.668;37.858;2023-07-31T12:02:18;99029.25;;;27.08;34.06
34674;BME280;20879;55.668;37.858;2023-07-31T12:04:51;99027.28;;;27.10;33.37
34674;BME280;20879;55.668;37.858;2023-07-31T12:07:23;99015.69;;;27.11;33.78
34674;BME280;20879;55.668;37.858;2023-07-31T12:09:55;99028.59;;;27.06;34.13
34674;BME280;20879;55.668;37.858;2023-07-31T12:12:33;99036.44;;;26.98;34.63
34674;BME280;20879;55.668;37.858;2023-07-31T12:15:15;99027.78;;;26.96;34.77
34674;BME280;20879;55.668;37.858;2023-07-31T12:17:51;99032.78;;;26.99;35.31
34674;BME280;20879;55.668;37.858;2023-07-31T12:20:28;99039.50;;;27.03;35.72
34674;BME280;20879;55.668;37.858;2023-07-31T12:23:00;99040.66;;;26.91;35.91
34674;BME280;20879;55.668;37.858;2023-07-31T12:25:33;99028.63;;;26.86;36.12
34674;BME280;20879;55.668;37.858;2023-07-31T12:28:05;99042.47;;;26.90;36.21
34674;BME280;20879;55.668;37.858;2023-07-31T12:30:57;99044.28;;;26.90;36.52
34674;BME280;20879;55.668;37.858;2023-07-31T12:33:32;99038.75;;;27.11;36.14
34674;BME280;20879;55.668;37.858;2023-07-31T12:36:12;99036.63;;;27.14;36.00
34674;BME280;20879;55.668;37.858;2023-07-31T12:38:52;99036.56;;;27.06;36.46
34674;BME280;20879;55.668;37.858;2023-07-31T12:41:32;99035.09;;;26.84;36.52
34674;BME280;20879;55.668;37.858;2023-07-31T12:50:07;99045.41;;;25.70;39.25
34674;BME280;20879;55.668;37.858;2023-07-31T12:52:46;99037.28;;;25.52;39.19
34674;BME280;20879;55.668;37.858;2023-07-31T12:55:28;99049.28;;;25.25;40.49
34674;BME280;20879;55.668;37.858;2023-07-31T12:58:00;99058.81;;;25.06;40.72
34674;BME280;20879;55.668;37.858;2023-07-31T13:00:33;99036.97;;;24.83;41.27
34674;BME280;20879;55.668;37.858;2023-07-31T13:03:04;99038.59;;;24.74;41.64
34674;BME280;20879;55.668;37.858;2023-07-31T13:05:39;99055.72;;;24.70;41.85
34674;BME280;20879;55.668;37.858;2023-07-31T13:08:14;99062.94;;;24.68;41.40
34674;BME280;20879;55.668;37.858;2023-07-31T13:10:46;99059.59;;;24.66;41.27
34674;BME280;20879;55.668;37.858;2023-07-31T13:13:17;99055.25;;;24.65;42.11
34674;BME280;20879;55.668;37.858;2023-07-31T13:15:48;99054.69;;;24.62;41.74
34674;BME280;20879;55.668;37.858;2023-07-31T13:18:23;99049.84;;;24.55;42.53
34674;BME280;20879;55.668;37.858;2023-07-31T13:21:00;99054.84;;;24.49;42.43
34674;BME280;20879;55.668;37.858;2023-07-31T13:23:40;99055.81;;;24.48;42.66
34674;BME280;20879;55.668;37.858;2023-07-31T13:26:10;99052.06;;;24.50;42.69
34674;BME280;20879;55.668;37.858;2023-07-31T13:28:45;99052.91;;;24.51;42.67
34674;BME280;20879;55.668;37.858;2023-07-31T13:31:17;99047.94;;;24.57;42.89
34674;BME280;20879;55.668;37.858;2023-07-31T13:33:47;99049.69;;;24.68;42.62